createdAt,value
2022-09-20T00:01:18.008Z,3.10
2022-09-20T00:03:46.006Z,2.97
2022-09-20T00:06:14.417Z,3.53
2022-09-20T00:08:41.684Z,2.70
2022-09-20T00:11:15.610Z,2.90
2022-09-20T00:13:43.204Z,3.23
2022-09-20T00:16:11.944Z,3.03
2022-09-20T00:18:39.228Z,3.40
2022-09-20T00:21:06.527Z,3.10
2022-09-20T00:23:33.958Z,3.40
2022-09-20T00:26:01.704Z,2.90
2022-09-20T00:28:29.170Z,3.50
2022-09-20T00:30:56.411Z,3.53
2022-09-20T00:33:24.387Z,3.20
2022-09-20T00:35:51.340Z,3.13
2022-09-20T00:38:18.097Z,3.97
2022-09-20T00:40:45.318Z,3.73
2022-09-20T00:43:16.444Z,3.77
2022-09-20T00:45:46.784Z,4.00
2022-09-20T00:48:21.890Z,4.03
2022-09-20T00:50:53.458Z,4.00
2022-09-20T00:53:21.610Z,3.87
2022-09-20T00:56:05.453Z,4.13
2022-09-20T00:58:36.275Z,4.43
2022-09-20T01:01:04.724Z,4.80
2022-09-20T01:03:33.326Z,5.10
2022-09-20T01:06:02.668Z,4.97
2022-09-20T01:08:29.826Z,4.90
2022-09-20T01:10:56.676Z,5.73
2022-09-20T01:13:25.691Z,5.13
2022-09-20T01:15:53.622Z,5.70
2022-09-20T01:18:21.789Z,5.97
2022-09-20T01:20:49.063Z,6.00
2022-09-20T01:23:20.015Z,6.60
2022-09-20T01:25:46.903Z,6.10
2022-09-20T01:28:14.068Z,5.43
2022-09-20T01:30:45.826Z,6.10
2022-09-20T01:33:37.427Z,6.13
2022-09-20T01:36:05.574Z,6.03
2022-09-20T01:38:35.330Z,6.03
2022-09-20T01:41:05.148Z,7.33
2022-09-20T01:43:37.716Z,5.53
2022-09-20T01:46:11.059Z,6.43
2022-09-20T01:48:39.030Z,6.43
2022-09-20T01:51:17.890Z,6.20
2022-09-20T01:53:47.866Z,5.63
2022-09-20T01:56:23.622Z,5.57
2022-09-20T01:59:23.831Z,6.10
2022-09-20T02:01:54.581Z,6.60
2022-09-20T02:04:40.713Z,6.20
2022-09-20T02:07:21.076Z,5.97
2022-09-20T02:09:57.251Z,5.50
2022-09-20T02:12:43.090Z,5.13
2022-09-20T02:15:10.248Z,5.50
2022-09-20T02:17:36.949Z,6.20
2022-09-20T02:20:09.651Z,5.60
2022-09-20T02:22:52.289Z,4.83
2022-09-20T02:25:22.314Z,5.30
2022-09-20T02:27:58.446Z,5.17
2022-09-20T02:30:43.995Z,4.83
2022-09-20T02:33:16.852Z,4.77
2022-09-20T02:35:56.210Z,5.27
2022-09-20T02:38:55.195Z,4.50
2022-09-20T02:41:37.206Z,5.00
2022-09-20T02:44:06.950Z,5.30
2022-09-20T02:46:37.415Z,5.03
2022-09-20T02:49:28.827Z,4.80
2022-09-20T02:52:02.109Z,6.03
2022-09-20T02:54:42.857Z,5.07
2022-09-20T02:57:21.935Z,5.20
2022-09-20T02:59:59.624Z,5.07
2022-09-20T03:02:46.426Z,5.30
2022-09-20T03:05:19.445Z,4.90
2022-09-20T03:08:05.062Z,4.67
2022-09-20T03:10:42.458Z,5.40
2022-09-20T03:13:19.135Z,5.20
2022-09-20T03:15:51.967Z,4.90
2022-09-20T03:18:37.726Z,4.47
2022-09-20T03:21:04.577Z,4.53
2022-09-20T03:23:50.408Z,4.57
2022-09-20T03:26:27.750Z,4.30
2022-09-20T03:28:57.298Z,4.80
2022-09-20T03:31:24.180Z,4.30
2022-09-20T03:34:07.712Z,4.50
2022-09-20T03:36:53.100Z,3.97
2022-09-20T03:39:22.931Z,4.63
2022-09-20T03:42:02.079Z,4.33
2022-09-20T03:44:40.984Z,4.27
2022-09-20T03:47:20.300Z,3.80
2022-09-20T03:50:01.495Z,3.70
2022-09-20T03:52:37.594Z,3.93
2022-09-20T03:55:30.552Z,3.57
2022-09-20T03:58:08.626Z,4.00
2022-09-20T04:00:59.141Z,4.13
2022-09-20T04:03:28.808Z,4.00
2022-09-20T04:05:58.627Z,4.20
2022-09-20T04:08:25.862Z,4.10
2022-09-20T04:11:15.902Z,4.10
2022-09-20T04:14:01.740Z,3.93
2022-09-20T04:16:47.114Z,3.77
2022-09-20T04:19:33.366Z,3.90
2022-09-20T04:22:00.943Z,4.30
2022-09-20T04:24:30.662Z,3.50
2022-09-20T04:27:00.991Z,4.03
2022-09-20T04:29:40.922Z,4.20
2022-09-20T04:32:07.726Z,4.43
2022-09-20T04:34:57.342Z,4.53
2022-09-20T04:37:29.931Z,4.97
2022-09-20T04:40:02.036Z,4.37
2022-09-20T04:42:31.869Z,4.53
2022-09-20T04:45:16.991Z,4.23
2022-09-20T04:47:43.891Z,3.77
2022-09-20T04:50:23.137Z,4.90
2022-09-20T04:53:12.508Z,4.80
2022-09-20T04:55:53.027Z,5.50
2022-09-20T04:58:37.802Z,5.20
2022-09-20T05:01:07.531Z,5.93
2022-09-20T05:03:53.086Z,5.80
2022-09-20T05:06:35.168Z,4.43
2022-09-20T05:09:20.622Z,5.10
2022-09-20T05:11:52.682Z,4.13
2022-09-20T05:14:24.975Z,4.67
2022-09-20T05:16:55.560Z,5.00
2022-09-20T05:19:28.722Z,5.47
2022-09-20T05:21:58.672Z,4.93
2022-09-20T05:24:25.826Z,4.50
2022-09-20T05:27:03.603Z,5.30
2022-09-20T05:29:50.652Z,6.77
2022-09-20T05:32:29.659Z,5.67
2022-09-20T05:34:56.492Z,6.50
2022-09-20T05:37:42.292Z,6.43
2022-09-20T05:40:21.959Z,6.03
2022-09-20T05:42:54.816Z,5.97
2022-09-20T05:45:33.739Z,6.30
2022-09-20T05:48:20.973Z,5.07
2022-09-20T05:51:20.380Z,5.40
2022-09-20T05:53:50.118Z,5.83
2022-09-20T05:56:22.540Z,6.43
2022-09-20T05:59:02.324Z,6.00
2022-09-20T06:01:29.962Z,5.50
2022-09-20T06:03:56.713Z,4.83
2022-09-20T06:06:32.791Z,4.43
2022-09-20T06:09:05.899Z,4.30
2022-09-20T06:11:32.785Z,4.50
2022-09-20T06:14:05.665Z,4.77
2022-09-20T06:16:32.681Z,4.03
2022-09-20T06:19:26.040Z,3.80
2022-09-20T06:21:53.028Z,5.20
2022-09-20T06:24:40.023Z,4.63
2022-09-20T06:27:11.103Z,4.70
2022-09-20T06:29:40.654Z,5.03
2022-09-20T06:32:08.364Z,4.73
2022-09-20T06:34:35.684Z,5.40
2022-09-20T06:37:50.275Z,4.40
2022-09-20T06:40:47.715Z,4.57
2022-09-20T06:43:14.691Z,4.17
2022-09-20T06:45:42.120Z,4.57
2022-09-20T06:48:13.399Z,5.10
2022-09-20T06:50:40.394Z,4.37
2022-09-20T06:53:07.383Z,4.17
2022-09-20T06:55:37.616Z,5.00
2022-09-20T06:58:04.560Z,4.80
2022-09-20T07:00:31.343Z,4.67
2022-09-20T07:02:58.266Z,4.57
2022-09-20T07:05:26.794Z,4.97
2022-09-20T07:07:57.585Z,5.33
2022-09-20T07:10:25.486Z,4.90
2022-09-20T07:12:52.254Z,5.10
2022-09-20T07:15:23.013Z,5.00
2022-09-20T07:17:51.233Z,5.93
2022-09-20T07:20:21.480Z,3.87
2022-09-20T07:22:48.693Z,4.87
2022-09-20T07:25:15.714Z,3.80
2022-09-20T07:27:42.473Z,4.07
2022-09-20T07:30:10.821Z,3.53
2022-09-20T07:32:37.682Z,3.00
2022-09-20T07:35:04.625Z,3.10
2022-09-20T07:37:35.083Z,2.47
2022-09-20T07:40:05.352Z,2.10
2022-09-20T07:42:32.402Z,2.10
2022-09-20T07:45:00.296Z,1.80
2022-09-20T07:47:27.833Z,1.73
2022-09-20T07:49:55.585Z,2.07
2022-09-20T07:52:22.382Z,2.13
2022-09-20T07:54:50.218Z,1.93
2022-09-20T07:57:17.113Z,1.70
2022-09-20T07:59:43.965Z,2.00
2022-09-20T08:02:14.531Z,1.53
2022-09-20T08:04:41.409Z,1.90
2022-09-20T08:07:08.344Z,2.10
2022-09-20T08:09:35.334Z,1.90
2022-09-20T08:14:05.376Z,1.53
2022-09-20T08:14:49.219Z,1.70
2022-09-20T08:17:16.532Z,1.50
2022-09-20T08:19:43.642Z,1.40
2022-09-20T08:22:11.121Z,1.50
2022-09-20T08:24:38.251Z,1.47
2022-09-20T08:27:05.273Z,1.80
2022-09-20T08:29:32.264Z,1.40
2022-09-20T08:32:00.877Z,1.83
2022-09-20T08:34:27.794Z,1.50
2022-09-20T08:36:56.736Z,1.93
2022-09-20T08:42:28.043Z,1.73
2022-09-20T08:44:58.972Z,2.07
2022-09-20T08:47:27.835Z,2.27
2022-09-20T08:49:57.988Z,2.60
2022-09-20T08:52:36.651Z,2.20
2022-09-20T08:55:24.399Z,3.20
2022-09-20T08:57:53.290Z,2.53
2022-09-20T09:00:21.440Z,2.47
2022-09-20T09:02:50.659Z,2.80
2022-09-20T09:05:23.436Z,3.03
2022-09-20T09:07:50.340Z,2.70
2022-09-20T09:10:17.618Z,2.60
2022-09-20T09:12:48.795Z,2.67
2022-09-20T09:15:26.354Z,2.20
2022-09-20T09:17:54.008Z,2.67
2022-09-20T09:20:24.530Z,2.40
2022-09-20T09:23:05.354Z,2.60
2022-09-20T09:25:34.640Z,2.60
2022-09-20T09:28:23.441Z,2.90
2022-09-20T09:30:50.338Z,2.80
2022-09-20T09:33:21.111Z,2.30
2022-09-20T09:35:53.773Z,2.30
2022-09-20T09:38:24.278Z,2.20
2022-09-20T09:40:55.247Z,3.20
2022-09-20T09:43:33.644Z,2.77
2022-09-20T09:46:21.630Z,3.40
2022-09-20T09:49:05.586Z,2.50
2022-09-20T09:51:34.502Z,2.80
2022-09-20T09:54:02.237Z,2.73
2022-09-20T09:56:43.158Z,2.37
2022-09-20T09:59:29.091Z,2.90
2022-09-20T10:02:08.716Z,2.20
2022-09-20T10:04:45.499Z,2.20
2022-09-20T10:07:21.535Z,2.50
2022-09-20T10:09:48.385Z,2.83
2022-09-20T10:12:26.514Z,2.00
2022-09-20T10:14:56.049Z,2.40
2022-09-20T10:17:32.190Z,2.50
2022-09-20T10:20:08.286Z,2.30
2022-09-20T10:23:26.512Z,2.00
2022-09-20T10:26:05.866Z,2.57
2022-09-20T10:28:37.679Z,2.33
2022-09-20T10:31:04.567Z,2.87
2022-09-20T10:33:35.324Z,1.93
2022-09-20T10:36:12.490Z,2.93
2022-09-20T10:38:59.493Z,2.40
2022-09-20T10:42:03.912Z,2.90
2022-09-20T10:44:33.825Z,2.13
2022-09-20T10:47:03.548Z,2.20
2022-09-20T10:49:30.464Z,2.70
2022-09-20T10:51:58.292Z,2.23
2022-09-20T10:54:27.895Z,2.20
2022-09-20T10:57:04.874Z,2.90
2022-09-20T10:59:37.663Z,2.10
2022-09-20T11:02:04.520Z,2.10
2022-09-20T11:04:49.885Z,2.17
2022-09-20T11:07:29.384Z,2.03
2022-09-20T11:09:59.704Z,2.43
2022-09-20T11:12:26.526Z,2.63
2022-09-20T11:15:00.508Z,2.17
2022-09-20T11:17:32.037Z,2.33
2022-09-20T11:20:08.316Z,2.60
2022-09-20T11:22:40.307Z,2.30
2022-09-20T11:25:18.129Z,2.30
2022-09-20T11:27:49.407Z,2.73
2022-09-20T11:30:16.316Z,2.60
2022-09-20T11:33:01.721Z,2.50
2022-09-20T11:35:48.065Z,2.83
2022-09-20T11:38:25.082Z,2.50
2022-09-20T11:40:57.999Z,2.27
2022-09-20T11:43:31.354Z,2.40
2022-09-20T11:46:00.274Z,2.40
2022-09-20T11:48:33.174Z,2.10
2022-09-20T11:51:02.851Z,1.73
2022-09-20T11:53:39.196Z,1.87
2022-09-20T11:56:15.624Z,1.60
2022-09-20T11:58:52.959Z,1.57
2022-09-20T12:01:34.475Z,1.60
2022-09-20T12:04:38.595Z,1.30
2022-09-20T12:07:17.868Z,1.50
2022-09-20T12:09:46.376Z,1.40
2022-09-20T12:12:20.297Z,1.70
2022-09-20T12:14:54.977Z,1.37
2022-09-20T12:17:40.769Z,1.53
2022-09-20T12:20:26.410Z,1.57
2022-09-20T12:22:53.242Z,1.50
2022-09-20T12:25:37.961Z,1.23
2022-09-20T12:28:05.494Z,1.30
2022-09-20T12:30:33.384Z,1.10
2022-09-20T12:33:01.608Z,1.93
2022-09-20T12:35:37.343Z,1.30
2022-09-20T12:38:22.343Z,1.23
2022-09-20T12:41:06.447Z,1.20
2022-09-20T12:43:34.355Z,1.00
2022-09-20T12:46:05.547Z,1.10
2022-09-20T12:48:38.357Z,1.20
2022-09-20T12:51:35.465Z,1.13
2022-09-20T12:54:12.039Z,1.40
2022-09-20T12:56:39.866Z,1.23
2022-09-20T12:59:20.218Z,1.07
2022-09-20T13:01:47.144Z,1.10
2022-09-20T13:04:32.927Z,1.20
2022-09-20T13:07:22.951Z,1.10
2022-09-20T13:09:49.982Z,0.90
2022-09-20T13:12:17.227Z,0.83
2022-09-20T13:14:44.656Z,1.00
2022-09-20T13:17:22.895Z,1.10
2022-09-20T13:19:51.307Z,1.40
2022-09-20T13:22:18.121Z,0.70
2022-09-20T13:24:46.635Z,0.83
2022-09-20T13:27:19.437Z,1.00
2022-09-20T13:29:47.116Z,1.03
2022-09-20T13:32:23.027Z,0.97
2022-09-20T13:35:08.768Z,1.30
2022-09-20T13:37:37.306Z,1.60
2022-09-20T13:40:07.298Z,1.67
2022-09-20T13:42:37.218Z,2.17
2022-09-20T13:45:04.704Z,1.37
2022-09-20T13:47:32.392Z,1.60
2022-09-20T13:50:03.211Z,1.90
2022-09-20T13:52:31.405Z,1.33
2022-09-20T13:54:58.200Z,1.50
2022-09-20T13:57:30.384Z,1.37
2022-09-20T13:59:58.839Z,1.10
2022-09-20T14:02:31.126Z,0.90
2022-09-20T14:05:00.216Z,1.50
2022-09-20T14:07:28.418Z,1.27
2022-09-20T14:09:56.141Z,1.10
2022-09-20T14:12:24.117Z,1.43
2022-09-20T14:14:51.957Z,1.20
2022-09-20T14:17:20.665Z,1.23
2022-09-20T14:19:49.497Z,1.30
2022-09-20T14:22:19.185Z,1.47
2022-09-20T14:24:57.759Z,1.30
2022-09-20T14:27:24.661Z,1.03
2022-09-20T14:29:52.341Z,1.40
2022-09-20T14:32:19.122Z,1.40
2022-09-20T14:34:47.218Z,0.97
2022-09-20T14:37:17.021Z,1.90
2022-09-20T14:39:53.097Z,1.20
2022-09-20T14:42:25.234Z,1.30
2022-09-20T14:44:53.191Z,1.60
2022-09-20T14:47:36.709Z,1.60
2022-09-20T14:50:04.252Z,1.60
2022-09-20T14:52:38.305Z,1.50
2022-09-20T14:55:14.264Z,1.80
2022-09-20T14:57:41.365Z,1.97
2022-09-20T15:00:10.974Z,2.40
2022-09-20T15:02:40.836Z,2.67
2022-09-20T15:05:17.426Z,3.00
2022-09-20T15:07:45.405Z,1.80
2022-09-20T15:10:12.729Z,4.10
2022-09-20T15:12:39.504Z,2.77
2022-09-20T15:15:06.514Z,7.13
2022-09-20T15:17:33.255Z,5.47
2022-09-20T15:20:00.098Z,3.20
2022-09-20T15:22:28.052Z,2.60
2022-09-20T15:24:54.829Z,2.70
2022-09-20T15:27:23.996Z,2.50
2022-09-20T15:29:54.476Z,4.03
2022-09-20T15:32:21.223Z,4.00
2022-09-20T15:34:48.330Z,3.60
2022-09-20T15:37:15.073Z,3.50
2022-09-20T15:39:41.867Z,12.03
2022-09-20T15:42:09.252Z,12.53
2022-09-20T15:44:36.317Z,5.20
2022-09-20T15:47:04.645Z,4.70
2022-09-20T15:49:32.337Z,6.93
2022-09-20T15:51:59.222Z,6.77
2022-09-20T15:54:27.224Z,5.70
2022-09-20T15:56:54.041Z,5.30
2022-09-20T15:59:23.355Z,6.10
2022-09-20T16:01:50.381Z,6.33
2022-09-20T16:04:19.576Z,6.87
2022-09-20T16:06:48.327Z,6.83
2022-09-20T16:09:15.610Z,14.87
2022-09-20T16:11:42.374Z,2.77
2022-09-20T16:14:09.506Z,3.23
2022-09-20T16:16:40.082Z,5.27
2022-09-20T16:19:23.878Z,5.23
2022-09-20T16:21:58.085Z,5.20
2022-09-20T16:24:26.799Z,10.07
2022-09-20T16:26:53.774Z,12.87
2022-09-20T16:29:22.554Z,15.93
2022-09-20T16:31:50.435Z,9.97
2022-09-20T16:34:19.421Z,7.37
2022-09-20T16:36:47.106Z,7.97
2022-09-20T16:39:14.502Z,6.43
2022-09-20T16:41:41.742Z,4.77
2022-09-20T16:44:09.064Z,5.63
2022-09-20T16:46:38.894Z,7.07
2022-09-20T16:49:09.805Z,3.57
2022-09-20T16:51:37.577Z,3.43
2022-09-20T16:54:05.463Z,3.40
2022-09-20T16:56:34.159Z,5.47
2022-09-20T16:59:04.674Z,4.73
2022-09-20T17:01:32.163Z,4.80
2022-09-20T17:03:59.182Z,5.17
2022-09-20T17:06:26.990Z,5.73
2022-09-20T17:08:58.672Z,6.93
2022-09-20T17:11:27.398Z,6.80
2022-09-20T17:13:54.562Z,6.47
2022-09-20T17:16:22.923Z,6.87
2022-09-20T17:18:58.955Z,6.07
2022-09-20T17:21:26.464Z,6.33
2022-09-20T17:23:57.624Z,7.10
2022-09-20T17:26:33.373Z,7.07
2022-09-20T17:29:01.701Z,6.50
2022-09-20T17:31:31.784Z,6.40
2022-09-20T17:34:00.291Z,5.93
2022-09-20T17:36:28.597Z,5.40
2022-09-20T17:38:59.391Z,6.03
2022-09-20T17:41:29.438Z,5.63
2022-09-20T17:43:57.305Z,6.17
2022-09-20T17:46:26.354Z,5.67
2022-09-20T17:48:55.711Z,6.23
2022-09-20T17:51:24.535Z,6.60
2022-09-20T17:53:52.204Z,7.93
2022-09-20T17:56:19.932Z,9.23
2022-09-20T17:58:46.767Z,11.30
2022-09-20T18:01:15.408Z,11.07
2022-09-20T18:03:43.487Z,12.10
2022-09-20T18:06:18.392Z,15.20
2022-09-20T18:08:46.189Z,20.23
2022-09-20T18:11:13.250Z,20.47
2022-09-20T18:13:40.204Z,18.13
2022-09-20T18:16:14.459Z,16.37
2022-09-20T18:18:42.559Z,14.83
2022-09-20T18:21:19.548Z,12.40
2022-09-20T18:23:47.329Z,11.57
2022-09-20T18:26:24.312Z,10.47
2022-09-20T18:29:05.281Z,13.83
2022-09-20T18:31:36.123Z,13.33
2022-09-20T18:34:04.197Z,15.37
2022-09-20T18:36:31.694Z,14.23
2022-09-20T18:38:59.648Z,12.07
2022-09-20T18:41:32.019Z,12.87
2022-09-20T18:43:59.071Z,11.97
2022-09-20T18:46:27.132Z,11.83
2022-09-20T18:48:55.066Z,11.40
2022-09-20T18:51:22.167Z,12.03
2022-09-20T18:53:48.933Z,11.73
2022-09-20T18:56:23.935Z,12.57
2022-09-20T18:58:52.172Z,9.97
2022-09-20T19:01:37.667Z,8.80
2022-09-20T19:04:04.594Z,7.67
2022-09-20T19:06:36.831Z,6.27
2022-09-20T19:09:06.494Z,7.23
2022-09-20T19:11:37.399Z,5.90
2022-09-20T19:14:08.007Z,5.53
2022-09-20T19:16:37.131Z,5.87
2022-09-20T19:19:03.965Z,6.83
2022-09-20T19:21:39.960Z,6.80
2022-09-20T19:24:22.647Z,6.23
2022-09-20T19:26:49.597Z,5.40
2022-09-20T19:29:25.052Z,5.60
2022-09-20T19:31:53.918Z,5.90
2022-09-20T19:34:24.845Z,6.50
2022-09-20T19:37:18.657Z,10.50
2022-09-20T19:40:04.741Z,9.33
2022-09-20T19:42:42.247Z,7.80
2022-09-20T19:45:19.397Z,5.47
2022-09-20T19:47:52.802Z,7.10
2022-09-20T19:50:39.996Z,8.00
2022-09-20T19:53:07.187Z,11.80
2022-09-20T19:55:35.199Z,17.60
2022-09-20T19:58:02.292Z,10.90
2022-09-20T20:00:30.171Z,8.33
2022-09-20T20:02:57.906Z,6.90
2022-09-20T20:05:29.280Z,7.13
2022-09-20T20:08:08.112Z,6.40
2022-09-20T20:10:35.490Z,6.43
2022-09-20T20:13:25.900Z,6.10
2022-09-20T20:15:57.541Z,6.60
2022-09-20T20:18:30.300Z,7.57
2022-09-20T20:20:58.883Z,7.87
2022-09-20T20:23:28.336Z,6.17
2022-09-20T20:26:00.245Z,7.87
2022-09-20T20:28:27.628Z,6.43
2022-09-20T20:30:57.867Z,6.00
2022-09-20T20:33:27.019Z,6.37
2022-09-20T20:35:55.874Z,6.40
2022-09-20T20:38:26.484Z,6.67
2022-09-20T20:41:01.110Z,5.00
2022-09-20T20:43:28.311Z,5.93
2022-09-20T20:45:55.322Z,6.53
2022-09-20T20:48:22.528Z,5.03
2022-09-20T20:50:59.677Z,5.93
2022-09-20T20:53:29.711Z,5.13
2022-09-20T20:56:00.767Z,5.57
2022-09-20T20:58:29.409Z,6.43
2022-09-20T21:01:03.503Z,6.13
2022-09-20T21:03:30.840Z,6.47
2022-09-20T21:06:20.288Z,6.33
2022-09-20T21:08:49.485Z,6.90
2022-09-20T21:11:24.707Z,6.63
2022-09-20T21:13:52.285Z,7.03
2022-09-20T21:16:23.399Z,6.47
2022-09-20T21:18:51.090Z,5.93
2022-09-20T21:21:17.857Z,6.23
2022-09-20T21:23:46.636Z,5.90
2022-09-20T21:26:15.724Z,6.17
2022-09-20T21:28:44.421Z,8.23
2022-09-20T21:31:12.322Z,6.80
2022-09-20T21:33:40.186Z,5.97
2022-09-20T21:36:09.199Z,5.60
2022-09-20T21:38:36.416Z,5.53
2022-09-20T21:41:04.635Z,5.53
2022-09-20T21:43:31.407Z,5.60
2022-09-20T21:45:58.945Z,5.57
2022-09-20T21:48:26.668Z,5.70
2022-09-20T21:50:59.954Z,6.10
2022-09-20T21:53:27.120Z,5.23
2022-09-20T21:55:58.504Z,5.37
2022-09-20T21:58:25.540Z,5.53
2022-09-20T22:00:59.161Z,4.80
2022-09-20T22:03:25.946Z,4.40
2022-09-20T22:05:52.975Z,4.37
2022-09-20T22:08:20.021Z,4.30
2022-09-20T22:10:55.018Z,4.00
2022-09-20T22:13:21.839Z,4.50
2022-09-20T22:15:48.652Z,3.97
2022-09-20T22:18:15.618Z,3.07
2022-09-20T22:20:42.369Z,4.30
2022-09-20T22:23:10.362Z,3.83
2022-09-20T22:25:37.120Z,3.93
2022-09-20T22:28:03.951Z,3.80
2022-09-20T22:30:31.031Z,3.27
2022-09-20T22:32:57.856Z,3.33
2022-09-20T22:35:24.727Z,3.70
2022-09-20T22:37:51.527Z,3.17
2022-09-20T22:40:18.459Z,3.20
2022-09-20T22:42:45.381Z,3.07
2022-09-20T22:45:12.127Z,3.20
2022-09-20T22:47:38.982Z,3.03
2022-09-20T22:50:06.497Z,3.03
2022-09-20T22:52:33.381Z,2.90
2022-09-20T22:55:00.161Z,3.50
2022-09-20T22:57:27.156Z,3.23
2022-09-20T22:59:54.074Z,3.00
2022-09-20T23:02:20.932Z,3.27
2022-09-20T23:04:48.018Z,3.07
2022-09-20T23:07:14.833Z,3.20
2022-09-20T23:09:41.621Z,3.40
2022-09-20T23:12:08.474Z,2.87
2022-09-20T23:14:35.245Z,2.80
2022-09-20T23:17:02.082Z,2.90
2022-09-20T23:19:28.986Z,2.77
2022-09-20T23:21:55.834Z,3.27
2022-09-20T23:24:22.594Z,2.70
2022-09-20T23:26:49.534Z,2.60
2022-09-20T23:29:16.690Z,3.10
2022-09-20T23:31:46.357Z,2.63
2022-09-20T23:34:14.201Z,2.53
2022-09-20T23:36:41.249Z,2.40
2022-09-20T23:39:09.081Z,2.87
2022-09-20T23:41:36.898Z,2.53
2022-09-20T23:44:06.872Z,2.83
2022-09-20T23:46:34.266Z,2.70
2022-09-20T23:49:01.200Z,2.83
2022-09-20T23:51:29.168Z,2.40
2022-09-20T23:53:56.364Z,2.53
2022-09-20T23:56:23.938Z,2.50
2022-09-20T23:58:50.998Z,2.53
